Terminal Aerodrome Forecast
Issued by NWS Jacksonville, FL

Home | Current Version | Previous Version | Text Only | Print | Product List | Glossary On
Versions: 1 2 3 4 5 6 7 8 9 10 11 12 13 14 15 16 17 18 19 20 21 22 23 24 25 26
000
FTUS42 KJAX 041749 AAA
TAFSSI
TAF AMD
KSSI 041749Z 0418/0518 10009KT P6SM VCTS BKN040CB BKN180
      TEMPO 0418/0421 3SM TSRA BKN025CB
     FM050200 VRB03KT P6SM SCT040 BKN250
     FM051300 06011KT P6SM VCSH SCT020 BKN040=

USA.gov is the U.S. government's official web portal to all federal, state and local government web resources and services.